sensor_id;sensor_type;location;lat;lon;timestamp;P1;durP1;ratioP1;P2;durP2;ratioP2
65463;SDS011;52063;45.110;9.870;2023-07-13T00:00:19;2.92;;;1.30;;
65463;SDS011;52063;45.110;9.870;2023-07-13T00:02:44;2.55;;;1.08;;
65463;SDS011;52063;45.110;9.870;2023-07-13T00:05:10;2.37;;;1.30;;
65463;SDS011;52063;45.110;9.870;2023-07-13T00:07:36;3.95;;;1.42;;
65463;SDS011;52063;45.110;9.870;2023-07-13T00:10:02;3.90;;;1.50;;
65463;SDS011;52063;45.110;9.870;2023-07-13T00:12:30;3.27;;;1.17;;
65463;SDS011;52063;45.110;9.870;2023-07-13T00:15:01;2.28;;;1.40;;
65463;SDS011;52063;45.110;9.870;2023-07-13T00:17:29;4.00;;;1.27;;
65463;SDS011;52063;45.110;9.870;2023-07-13T00:19:55;4.20;;;1.10;;
65463;SDS011;52063;45.110;9.870;2023-07-13T00:22:22;5.05;;;1.55;;
65463;SDS011;52063;45.110;9.870;2023-07-13T00:24:50;5.25;;;1.00;;
65463;SDS011;52063;45.110;9.870;2023-07-13T00:27:17;5.50;;;1.23;;
65463;SDS011;52063;45.110;9.870;2023-07-13T00:29:42;2.87;;;1.20;;
65463;SDS011;52063;45.110;9.870;2023-07-13T00:32:08;2.65;;;1.17;;
65463;SDS011;52063;45.110;9.870;2023-07-13T00:34:35;5.05;;;1.00;;
65463;SDS011;52063;45.110;9.870;2023-07-13T00:37:00;5.37;;;1.20;;
65463;SDS011;52063;45.110;9.870;2023-07-13T00:39:26;3.97;;;1.30;;
65463;SDS011;52063;45.110;9.870;2023-07-13T00:41:52;3.40;;;1.20;;
65463;SDS011;52063;45.110;9.870;2023-07-13T00:44:19;2.17;;;1.10;;
65463;SDS011;52063;45.110;9.870;2023-07-13T00:46:46;2.83;;;1.20;;
65463;SDS011;52063;45.110;9.870;2023-07-13T00:49:13;4.40;;;1.35;;
65463;SDS011;52063;45.110;9.870;2023-07-13T00:52:14;3.88;;;1.10;;
65463;SDS011;52063;45.110;9.870;2023-07-13T00:54:35;2.97;;;1.03;;
65463;SDS011;52063;45.110;9.870;2023-07-13T00:57:04;2.78;;;1.20;;
65463;SDS011;52063;45.110;9.870;2023-07-13T00:59:32;4.10;;;1.15;;
65463;SDS011;52063;45.110;9.870;2023-07-13T01:01:59;4.47;;;1.30;;
65463;SDS011;52063;45.110;9.870;2023-07-13T01:04:25;4.97;;;1.37;;
65463;SDS011;52063;45.110;9.870;2023-07-13T01:06:51;3.13;;;1.10;;
65463;SDS011;52063;45.110;9.870;2023-07-13T01:09:16;2.55;;;1.00;;
65463;SDS011;52063;45.110;9.870;2023-07-13T01:11:43;2.80;;;1.10;;
65463;SDS011;52063;45.110;9.870;2023-07-13T01:14:10;2.25;;;1.08;;
65463;SDS011;52063;45.110;9.870;2023-07-13T01:16:36;3.00;;;0.90;;
65463;SDS011;52063;45.110;9.870;2023-07-13T01:19:19;1.92;;;0.85;;
65463;SDS011;52063;45.110;9.870;2023-07-13T01:21:50;3.15;;;1.27;;
65463;SDS011;52063;45.110;9.870;2023-07-13T01:24:16;4.25;;;1.10;;
65463;SDS011;52063;45.110;9.870;2023-07-13T01:26:41;2.33;;;1.10;;
65463;SDS011;52063;45.110;9.870;2023-07-13T01:29:07;2.95;;;0.90;;
65463;SDS011;52063;45.110;9.870;2023-07-13T01:31:33;3.57;;;1.10;;
65463;SDS011;52063;45.110;9.870;2023-07-13T01:33:59;4.45;;;1.20;;
65463;SDS011;52063;45.110;9.870;2023-07-13T01:36:24;6.93;;;1.13;;
65463;SDS011;52063;45.110;9.870;2023-07-13T01:38:50;2.83;;;1.10;;
65463;SDS011;52063;45.110;9.870;2023-07-13T01:41:15;3.60;;;1.45;;
65463;SDS011;52063;45.110;9.870;2023-07-13T01:43:41;2.63;;;1.10;;
65463;SDS011;52063;45.110;9.870;2023-07-13T01:46:06;2.80;;;1.00;;
65463;SDS011;52063;45.110;9.870;2023-07-13T01:48:32;5.00;;;0.90;;
65463;SDS011;52063;45.110;9.870;2023-07-13T01:50:59;2.10;;;1.00;;
65463;SDS011;52063;45.110;9.870;2023-07-13T01:53:25;2.20;;;0.90;;
65463;SDS011;52063;45.110;9.870;2023-07-13T01:55:50;6.90;;;1.27;;
65463;SDS011;52063;45.110;9.870;2023-07-13T01:58:16;4.67;;;1.03;;
65463;SDS011;52063;45.110;9.870;2023-07-13T02:00:41;6.23;;;1.10;;
65463;SDS011;52063;45.110;9.870;2023-07-13T02:03:06;4.47;;;0.90;;
65463;SDS011;52063;45.110;9.870;2023-07-13T02:05:32;2.47;;;0.80;;
65463;SDS011;52063;45.110;9.870;2023-07-13T02:07:57;4.10;;;1.40;;
65463;SDS011;52063;45.110;9.870;2023-07-13T02:10:24;2.85;;;1.10;;
65463;SDS011;52063;45.110;9.870;2023-07-13T02:12:49;5.17;;;1.00;;
65463;SDS011;52063;45.110;9.870;2023-07-13T02:15:15;2.95;;;1.02;;
65463;SDS011;52063;45.110;9.870;2023-07-13T02:17:41;2.13;;;1.00;;
65463;SDS011;52063;45.110;9.870;2023-07-13T02:20:07;4.93;;;0.80;;
65463;SDS011;52063;45.110;9.870;2023-07-13T02:22:33;2.53;;;1.00;;
65463;SDS011;52063;45.110;9.870;2023-07-13T02:24:58;2.77;;;1.00;;
65463;SDS011;52063;45.110;9.870;2023-07-13T02:27:24;2.13;;;0.90;;
65463;SDS011;52063;45.110;9.870;2023-07-13T02:29:50;2.60;;;0.93;;
65463;SDS011;52063;45.110;9.870;2023-07-13T02:32:16;4.03;;;1.10;;
65463;SDS011;52063;45.110;9.870;2023-07-13T02:34:43;3.53;;;1.15;;
65463;SDS011;52063;45.110;9.870;2023-07-13T02:37:09;2.78;;;1.10;;
65463;SDS011;52063;45.110;9.870;2023-07-13T02:39:34;3.67;;;1.30;;
65463;SDS011;52063;45.110;9.870;2023-07-13T02:42:02;1.73;;;1.23;;
65463;SDS011;52063;45.110;9.870;2023-07-13T02:44:28;2.97;;;1.38;;
65463;SDS011;52063;45.110;9.870;2023-07-13T02:46:55;4.47;;;1.20;;
65463;SDS011;52063;45.110;9.870;2023-07-13T02:49:20;5.37;;;1.57;;
65463;SDS011;52063;45.110;9.870;2023-07-13T02:51:46;5.15;;;1.48;;
65463;SDS011;52063;45.110;9.870;2023-07-13T02:54:12;4.88;;;2.25;;
65463;SDS011;52063;45.110;9.870;2023-07-13T02:56:39;6.27;;;1.87;;
65463;SDS011;52063;45.110;9.870;2023-07-13T02:59:05;5.75;;;1.73;;
65463;SDS011;52063;45.110;9.870;2023-07-13T03:01:30;6.03;;;1.87;;
65463;SDS011;52063;45.110;9.870;2023-07-13T03:03:58;3.60;;;1.80;;
65463;SDS011;52063;45.110;9.870;2023-07-13T03:06:23;2.63;;;1.55;;
65463;SDS011;52063;45.110;9.870;2023-07-13T03:08:52;3.20;;;1.63;;
65463;SDS011;52063;45.110;9.870;2023-07-13T03:11:20;2.88;;;1.60;;
65463;SDS011;52063;45.110;9.870;2023-07-13T03:14:04;5.35;;;2.00;;
65463;SDS011;52063;45.110;9.870;2023-07-13T03:16:33;5.65;;;1.88;;
65463;SDS011;52063;45.110;9.870;2023-07-13T03:18:59;5.70;;;2.43;;
65463;SDS011;52063;45.110;9.870;2023-07-13T03:21:24;6.53;;;2.35;;
65463;SDS011;52063;45.110;9.870;2023-07-13T03:23:50;6.07;;;2.40;;
65463;SDS011;52063;45.110;9.870;2023-07-13T03:26:17;4.22;;;2.28;;
65463;SDS011;52063;45.110;9.870;2023-07-13T03:28:45;5.73;;;2.50;;
65463;SDS011;52063;45.110;9.870;2023-07-13T03:31:19;4.15;;;2.47;;
65463;SDS011;52063;45.110;9.870;2023-07-13T03:33:46;7.90;;;3.00;;
65463;SDS011;52063;45.110;9.870;2023-07-13T03:36:14;6.88;;;2.72;;
65463;SDS011;52063;45.110;9.870;2023-07-13T03:38:48;7.05;;;2.97;;
65463;SDS011;52063;45.110;9.870;2023-07-13T03:41:22;7.33;;;2.90;;
65463;SDS011;52063;45.110;9.870;2023-07-13T03:43:49;5.80;;;2.42;;
65463;SDS011;52063;45.110;9.870;2023-07-13T03:46:16;8.13;;;2.95;;
65463;SDS011;52063;45.110;9.870;2023-07-13T03:48:43;8.68;;;2.53;;
65463;SDS011;52063;45.110;9.870;2023-07-13T03:51:11;8.60;;;2.38;;
65463;SDS011;52063;45.110;9.870;2023-07-13T03:53:43;6.10;;;2.40;;
65463;SDS011;52063;45.110;9.870;2023-07-13T03:56:11;3.40;;;1.92;;
65463;SDS011;52063;45.110;9.870;2023-07-13T03:58:40;5.50;;;1.52;;
65463;SDS011;52063;45.110;9.870;2023-07-13T04:01:22;5.40;;;1.42;;
65463;SDS011;52063;45.110;9.870;2023-07-13T04:03:50;4.88;;;1.38;;
65463;SDS011;52063;45.110;9.870;2023-07-13T04:06:17;3.20;;;1.50;;
65463;SDS011;52063;45.110;9.870;2023-07-13T04:08:54;4.45;;;2.08;;
65463;SDS011;52063;45.110;9.870;2023-07-13T04:11:25;5.20;;;2.20;;
65463;SDS011;52063;45.110;9.870;2023-07-13T04:13:52;5.53;;;1.73;;
65463;SDS011;52063;45.110;9.870;2023-07-13T04:16:18;5.67;;;1.90;;
65463;SDS011;52063;45.110;9.870;2023-07-13T04:18:45;7.03;;;1.90;;
65463;SDS011;52063;45.110;9.870;2023-07-13T04:21:11;7.68;;;1.95;;
65463;SDS011;52063;45.110;9.870;2023-07-13T04:23:38;6.07;;;2.00;;
65463;SDS011;52063;45.110;9.870;2023-07-13T04:26:03;5.17;;;2.00;;
65463;SDS011;52063;45.110;9.870;2023-07-13T04:28:29;10.40;;;2.22;;
65463;SDS011;52063;45.110;9.870;2023-07-13T04:30:55;4.75;;;2.35;;
65463;SDS011;52063;45.110;9.870;2023-07-13T04:33:21;7.73;;;2.10;;
65463;SDS011;52063;45.110;9.870;2023-07-13T04:35:50;7.35;;;2.13;;
65463;SDS011;52063;45.110;9.870;2023-07-13T04:38:23;4.35;;;2.38;;
65463;SDS011;52063;45.110;9.870;2023-07-13T04:40:50;3.05;;;1.77;;
65463;SDS011;52063;45.110;9.870;2023-07-13T04:43:16;5.53;;;2.20;;
65463;SDS011;52063;45.110;9.870;2023-07-13T04:45:42;11.43;;;2.40;;
65463;SDS011;52063;45.110;9.870;2023-07-13T04:48:07;6.50;;;2.45;;
65463;SDS011;52063;45.110;9.870;2023-07-13T04:50:35;5.90;;;2.60;;
65463;SDS011;52063;45.110;9.870;2023-07-13T04:53:01;6.03;;;2.60;;
65463;SDS011;52063;45.110;9.870;2023-07-13T04:55:27;6.00;;;2.15;;
65463;SDS011;52063;45.110;9.870;2023-07-13T04:57:55;5.32;;;3.00;;
65463;SDS011;52063;45.110;9.870;2023-07-13T05:00:21;10.57;;;3.70;;
65463;SDS011;52063;45.110;9.870;2023-07-13T05:02:46;8.53;;;4.20;;
65463;SDS011;52063;45.110;9.870;2023-07-13T05:05:12;8.25;;;4.40;;
65463;SDS011;52063;45.110;9.870;2023-07-13T05:07:37;8.10;;;4.00;;
65463;SDS011;52063;45.110;9.870;2023-07-13T05:10:03;8.17;;;4.20;;
65463;SDS011;52063;45.110;9.870;2023-07-13T05:12:29;8.77;;;3.70;;
65463;SDS011;52063;45.110;9.870;2023-07-13T05:14:55;8.23;;;3.65;;
65463;SDS011;52063;45.110;9.870;2023-07-13T05:17:21;6.75;;;3.33;;
65463;SDS011;52063;45.110;9.870;2023-07-13T05:19:46;7.73;;;3.27;;
65463;SDS011;52063;45.110;9.870;2023-07-13T05:22:12;5.32;;;2.80;;
65463;SDS011;52063;45.110;9.870;2023-07-13T05:24:37;4.00;;;3.00;;
65463;SDS011;52063;45.110;9.870;2023-07-13T05:27:03;9.87;;;2.57;;
65463;SDS011;52063;45.110;9.870;2023-07-13T05:29:29;7.65;;;2.47;;
65463;SDS011;52063;45.110;9.870;2023-07-13T05:31:56;4.85;;;2.58;;
65463;SDS011;52063;45.110;9.870;2023-07-13T05:34:22;9.47;;;2.40;;
65463;SDS011;52063;45.110;9.870;2023-07-13T05:36:48;4.22;;;2.20;;
65463;SDS011;52063;45.110;9.870;2023-07-13T05:39:14;3.45;;;2.10;;
65463;SDS011;52063;45.110;9.870;2023-07-13T05:41:39;7.53;;;2.03;;
65463;SDS011;52063;45.110;9.870;2023-07-13T05:44:05;7.20;;;2.30;;
65463;SDS011;52063;45.110;9.870;2023-07-13T05:46:30;7.85;;;2.50;;
65463;SDS011;52063;45.110;9.870;2023-07-13T05:48:56;7.10;;;3.00;;
65463;SDS011;52063;45.110;9.870;2023-07-13T05:51:21;12.17;;;6.07;;
65463;SDS011;52063;45.110;9.870;2023-07-13T05:53:47;12.30;;;6.30;;
65463;SDS011;52063;45.110;9.870;2023-07-13T05:56:12;14.33;;;6.10;;
65463;SDS011;52063;45.110;9.870;2023-07-13T05:58:38;9.23;;;5.00;;
65463;SDS011;52063;45.110;9.870;2023-07-13T06:01:10;10.65;;;3.90;;
65463;SDS011;52063;45.110;9.870;2023-07-13T06:03:36;9.45;;;3.80;;
65463;SDS011;52063;45.110;9.870;2023-07-13T06:06:05;11.00;;;3.42;;
65463;SDS011;52063;45.110;9.870;2023-07-13T06:08:32;6.57;;;2.80;;
65463;SDS011;52063;45.110;9.870;2023-07-13T06:11:05;7.65;;;2.70;;
65463;SDS011;52063;45.110;9.870;2023-07-13T06:13:31;6.28;;;2.53;;
65463;SDS011;52063;45.110;9.870;2023-07-13T06:15:57;5.27;;;2.27;;
65463;SDS011;52063;45.110;9.870;2023-07-13T06:18:22;6.43;;;2.70;;
65463;SDS011;52063;45.110;9.870;2023-07-13T06:20:47;4.18;;;1.73;;
65463;SDS011;52063;45.110;9.870;2023-07-13T06:23:13;8.97;;;2.17;;
65463;SDS011;52063;45.110;9.870;2023-07-13T06:25:39;4.77;;;1.70;;
65463;SDS011;52063;45.110;9.870;2023-07-13T06:28:05;7.45;;;2.13;;
65463;SDS011;52063;45.110;9.870;2023-07-13T06:30:30;5.63;;;1.77;;
65463;SDS011;52063;45.110;9.870;2023-07-13T06:32:57;6.00;;;1.77;;
65463;SDS011;52063;45.110;9.870;2023-07-13T06:35:22;5.25;;;2.08;;
65463;SDS011;52063;45.110;9.870;2023-07-13T06:37:48;5.13;;;2.07;;
65463;SDS011;52063;45.110;9.870;2023-07-13T06:40:13;5.20;;;1.80;;
65463;SDS011;52063;45.110;9.870;2023-07-13T06:42:39;5.47;;;1.70;;
65463;SDS011;52063;45.110;9.870;2023-07-13T06:45:04;6.17;;;1.60;;
65463;SDS011;52063;45.110;9.870;2023-07-13T06:47:30;7.75;;;1.58;;
65463;SDS011;52063;45.110;9.870;2023-07-13T06:49:56;3.47;;;1.90;;
65463;SDS011;52063;45.110;9.870;2023-07-13T06:52:25;3.97;;;1.50;;
65463;SDS011;52063;45.110;9.870;2023-07-13T06:54:50;6.15;;;1.77;;
65463;SDS011;52063;45.110;9.870;2023-07-13T06:57:15;5.53;;;1.70;;
65463;SDS011;52063;45.110;9.870;2023-07-13T06:59:41;3.63;;;1.73;;
65463;SDS011;52063;45.110;9.870;2023-07-13T07:02:08;6.32;;;1.75;;
65463;SDS011;52063;45.110;9.870;2023-07-13T07:04:34;2.43;;;1.30;;
65463;SDS011;52063;45.110;9.870;2023-07-13T07:06:59;6.13;;;1.83;;
65463;SDS011;52063;45.110;9.870;2023-07-13T07:09:25;6.80;;;1.80;;
65463;SDS011;52063;45.110;9.870;2023-07-13T07:11:50;5.10;;;1.83;;
65463;SDS011;52063;45.110;9.870;2023-07-13T07:14:16;6.57;;;1.90;;
65463;SDS011;52063;45.110;9.870;2023-07-13T07:16:42;4.70;;;1.83;;
65463;SDS011;52063;45.110;9.870;2023-07-13T07:19:08;7.05;;;1.52;;
65463;SDS011;52063;45.110;9.870;2023-07-13T07:21:33;6.63;;;1.77;;
65463;SDS011;52063;45.110;9.870;2023-07-13T07:23:59;4.37;;;1.50;;
65463;SDS011;52063;45.110;9.870;2023-07-13T07:26:25;5.65;;;1.50;;
65463;SDS011;52063;45.110;9.870;2023-07-13T07:28:51;3.65;;;1.45;;
65463;SDS011;52063;45.110;9.870;2023-07-13T07:31:16;5.83;;;1.60;;
65463;SDS011;52063;45.110;9.870;2023-07-13T07:33:41;3.73;;;1.43;;
65463;SDS011;52063;45.110;9.870;2023-07-13T07:36:08;4.15;;;1.50;;
65463;SDS011;52063;45.110;9.870;2023-07-13T07:38:33;4.87;;;1.87;;
65463;SDS011;52063;45.110;9.870;2023-07-13T07:41:00;6.30;;;1.63;;
65463;SDS011;52063;45.110;9.870;2023-07-13T07:43:27;4.93;;;1.50;;
65463;SDS011;52063;45.110;9.870;2023-07-13T07:45:53;3.83;;;1.67;;
65463;SDS011;52063;45.110;9.870;2023-07-13T07:48:18;2.77;;;1.33;;
65463;SDS011;52063;45.110;9.870;2023-07-13T07:50:44;6.50;;;1.63;;
65463;SDS011;52063;45.110;9.870;2023-07-13T07:53:10;5.75;;;1.42;;
65463;SDS011;52063;45.110;9.870;2023-07-13T07:55:36;5.15;;;1.77;;
65463;SDS011;52063;45.110;9.870;2023-07-13T07:58:01;4.13;;;1.80;;
65463;SDS011;52063;45.110;9.870;2023-07-13T08:00:27;5.13;;;1.50;;
65463;SDS011;52063;45.110;9.870;2023-07-13T08:02:56;5.38;;;1.60;;
65463;SDS011;52063;45.110;9.870;2023-07-13T08:05:22;6.23;;;1.50;;
65463;SDS011;52063;45.110;9.870;2023-07-13T08:07:47;3.28;;;1.42;;
65463;SDS011;52063;45.110;9.870;2023-07-13T08:10:13;3.90;;;1.20;;
65463;SDS011;52063;45.110;9.870;2023-07-13T08:12:39;5.50;;;1.57;;
65463;SDS011;52063;45.110;9.870;2023-07-13T08:15:05;8.38;;;1.85;;
65463;SDS011;52063;45.110;9.870;2023-07-13T08:17:32;5.50;;;1.70;;
65463;SDS011;52063;45.110;9.870;2023-07-13T08:19:57;4.30;;;1.67;;
65463;SDS011;52063;45.110;9.870;2023-07-13T08:22:23;8.87;;;1.80;;
65463;SDS011;52063;45.110;9.870;2023-07-13T08:24:48;11.75;;;2.00;;
65463;SDS011;52063;45.110;9.870;2023-07-13T08:27:20;4.30;;;1.70;;
65463;SDS011;52063;45.110;9.870;2023-07-13T08:29:47;7.97;;;1.58;;
65463;SDS011;52063;45.110;9.870;2023-07-13T08:32:13;5.50;;;1.58;;
65463;SDS011;52063;45.110;9.870;2023-07-13T08:34:39;8.23;;;1.93;;
65463;SDS011;52063;45.110;9.870;2023-07-13T08:37:05;5.30;;;1.63;;
65463;SDS011;52063;45.110;9.870;2023-07-13T08:39:31;7.05;;;1.90;;
65463;SDS011;52063;45.110;9.870;2023-07-13T08:41:58;4.50;;;1.90;;
65463;SDS011;52063;45.110;9.870;2023-07-13T08:47:22;4.40;;;1.67;;
65463;SDS011;52063;45.110;9.870;2023-07-13T08:49:48;6.00;;;2.00;;
65463;SDS011;52063;45.110;9.870;2023-07-13T08:52:26;5.07;;;1.63;;
65463;SDS011;52063;45.110;9.870;2023-07-13T08:55:26;8.77;;;2.20;;
65463;SDS011;52063;45.110;9.870;2023-07-13T08:58:09;8.93;;;2.60;;
65463;SDS011;52063;45.110;9.870;2023-07-13T09:03:25;7.47;;;2.22;;
65463;SDS011;52063;45.110;9.870;2023-07-13T09:05:55;8.15;;;1.85;;
65463;SDS011;52063;45.110;9.870;2023-07-13T09:16:23;6.72;;;1.55;;
65463;SDS011;52063;45.110;9.870;2023-07-13T09:18:50;4.77;;;1.90;;
65463;SDS011;52063;45.110;9.870;2023-07-13T09:21:18;7.32;;;2.42;;
65463;SDS011;52063;45.110;9.870;2023-07-13T09:23:47;4.90;;;1.90;;
65463;SDS011;52063;45.110;9.870;2023-07-13T09:26:15;7.15;;;1.80;;
65463;SDS011;52063;45.110;9.870;2023-07-13T09:28:57;6.30;;;2.20;;
65463;SDS011;52063;45.110;9.870;2023-07-13T09:31:26;7.77;;;2.40;;
65463;SDS011;52063;45.110;9.870;2023-07-13T09:33:57;6.00;;;2.10;;
65463;SDS011;52063;45.110;9.870;2023-07-13T09:36:26;4.40;;;1.98;;
65463;SDS011;52063;45.110;9.870;2023-07-13T09:39:03;3.20;;;1.73;;
65463;SDS011;52063;45.110;9.870;2023-07-13T09:41:41;5.88;;;2.15;;
65463;SDS011;52063;45.110;9.870;2023-07-13T09:44:12;10.10;;;2.37;;
65463;SDS011;52063;45.110;9.870;2023-07-13T09:46:46;5.75;;;2.00;;
65463;SDS011;52063;45.110;9.870;2023-07-13T09:49:17;3.80;;;1.77;;
65463;SDS011;52063;45.110;9.870;2023-07-13T09:51:42;5.53;;;2.00;;
65463;SDS011;52063;45.110;9.870;2023-07-13T09:54:19;3.83;;;1.85;;
65463;SDS011;52063;45.110;9.870;2023-07-13T09:56:46;3.42;;;1.67;;
65463;SDS011;52063;45.110;9.870;2023-07-13T09:59:21;4.87;;;1.97;;
65463;SDS011;52063;45.110;9.870;2023-07-13T10:01:49;3.90;;;2.35;;
65463;SDS011;52063;45.110;9.870;2023-07-13T10:04:17;6.22;;;1.88;;
65463;SDS011;52063;45.110;9.870;2023-07-13T10:06:44;3.63;;;2.17;;
65463;SDS011;52063;45.110;9.870;2023-07-13T10:09:10;8.80;;;2.03;;
65463;SDS011;52063;45.110;9.870;2023-07-13T10:11:39;6.28;;;1.90;;
65463;SDS011;52063;45.110;9.870;2023-07-13T10:14:15;6.10;;;1.95;;
65463;SDS011;52063;45.110;9.870;2023-07-13T10:16:43;5.72;;;2.60;;
65463;SDS011;52063;45.110;9.870;2023-07-13T10:21:55;6.47;;;2.20;;
65463;SDS011;52063;45.110;9.870;2023-07-13T10:24:23;4.20;;;1.85;;
65463;SDS011;52063;45.110;9.870;2023-07-13T10:29:48;4.30;;;1.98;;
65463;SDS011;52063;45.110;9.870;2023-07-13T10:32:17;4.57;;;1.88;;
65463;SDS011;52063;45.110;9.870;2023-07-13T10:34:45;4.00;;;1.80;;
65463;SDS011;52063;45.110;9.870;2023-07-13T10:37:17;3.97;;;2.38;;
65463;SDS011;52063;45.110;9.870;2023-07-13T10:39:45;4.25;;;1.85;;
65463;SDS011;52063;45.110;9.870;2023-07-13T10:42:11;4.90;;;1.50;;
65463;SDS011;52063;45.110;9.870;2023-07-13T10:44:50;4.90;;;2.07;;
65463;SDS011;52063;45.110;9.870;2023-07-13T10:47:16;6.38;;;1.85;;
65463;SDS011;52063;45.110;9.870;2023-07-13T10:49:43;7.53;;;1.80;;
65463;SDS011;52063;45.110;9.870;2023-07-13T10:55:05;4.13;;;1.50;;
65463;SDS011;52063;45.110;9.870;2023-07-13T10:57:41;5.65;;;1.92;;
65463;SDS011;52063;45.110;9.870;2023-07-13T11:00:14;3.17;;;1.48;;
65463;SDS011;52063;45.110;9.870;2023-07-13T11:02:41;4.07;;;1.48;;
65463;SDS011;52063;45.110;9.870;2023-07-13T11:05:27;5.67;;;1.70;;
65463;SDS011;52063;45.110;9.870;2023-07-13T11:07:56;3.42;;;1.40;;
65463;SDS011;52063;45.110;9.870;2023-07-13T11:10:48;4.55;;;1.83;;
65463;SDS011;52063;45.110;9.870;2023-07-13T11:18:41;4.00;;;1.73;;
65463;SDS011;52063;45.110;9.870;2023-07-13T11:21:14;3.47;;;1.38;;
65463;SDS011;52063;45.110;9.870;2023-07-13T11:23:42;4.25;;;1.73;;
65463;SDS011;52063;45.110;9.870;2023-07-13T11:31:56;2.53;;;1.40;;
65463;SDS011;52063;45.110;9.870;2023-07-13T11:34:36;2.83;;;1.20;;
65463;SDS011;52063;45.110;9.870;2023-07-13T11:37:03;3.67;;;1.48;;
65463;SDS011;52063;45.110;9.870;2023-07-13T11:39:33;2.65;;;1.42;;
65463;SDS011;52063;45.110;9.870;2023-07-13T11:42:01;3.42;;;1.10;;
65463;SDS011;52063;45.110;9.870;2023-07-13T11:44:30;3.30;;;1.40;;
65463;SDS011;52063;45.110;9.870;2023-07-13T11:46:58;2.75;;;1.50;;
65463;SDS011;52063;45.110;9.870;2023-07-13T11:49:26;4.30;;;1.70;;
65463;SDS011;52063;45.110;9.870;2023-07-13T11:51:54;2.35;;;1.02;;
65463;SDS011;52063;45.110;9.870;2023-07-13T11:54:30;4.57;;;1.27;;
65463;SDS011;52063;45.110;9.870;2023-07-13T11:56:58;3.67;;;1.60;;
65463;SDS011;52063;45.110;9.870;2023-07-13T11:59:26;8.02;;;1.50;;
65463;SDS011;52063;45.110;9.870;2023-07-13T12:01:54;3.17;;;1.10;;
65463;SDS011;52063;45.110;9.870;2023-07-13T12:04:21;3.33;;;1.27;;
65463;SDS011;52063;45.110;9.870;2023-07-13T12:07:35;4.00;;;1.30;;
65463;SDS011;52063;45.110;9.870;2023-07-13T12:09:41;3.38;;;1.30;;
65463;SDS011;52063;45.110;9.870;2023-07-13T12:12:10;2.78;;;1.30;;
65463;SDS011;52063;45.110;9.870;2023-07-13T12:14:37;2.20;;;1.10;;
65463;SDS011;52063;45.110;9.870;2023-07-13T12:17:05;3.17;;;1.35;;
65463;SDS011;52063;45.110;9.870;2023-07-13T12:19:41;3.25;;;1.25;;
65463;SDS011;52063;45.110;9.870;2023-07-13T12:22:08;4.63;;;1.47;;
65463;SDS011;52063;45.110;9.870;2023-07-13T12:24:34;2.85;;;1.10;;
65463;SDS011;52063;45.110;9.870;2023-07-13T12:27:01;2.67;;;1.20;;
65463;SDS011;52063;45.110;9.870;2023-07-13T12:29:29;2.70;;;1.20;;
65463;SDS011;52063;45.110;9.870;2023-07-13T12:31:55;3.47;;;1.20;;
65463;SDS011;52063;45.110;9.870;2023-07-13T12:34:22;1.88;;;1.30;;
65463;SDS011;52063;45.110;9.870;2023-07-13T12:36:53;3.20;;;1.30;;
65463;SDS011;52063;45.110;9.870;2023-07-13T12:39:25;2.20;;;1.30;;
65463;SDS011;52063;45.110;9.870;2023-07-13T12:44:53;3.15;;;1.30;;
65463;SDS011;52063;45.110;9.870;2023-07-13T12:47:20;2.63;;;1.42;;
65463;SDS011;52063;45.110;9.870;2023-07-13T12:49:50;4.77;;;1.43;;
65463;SDS011;52063;45.110;9.870;2023-07-13T12:52:21;4.30;;;1.60;;
65463;SDS011;52063;45.110;9.870;2023-07-13T12:54:56;5.47;;;1.65;;
65463;SDS011;52063;45.110;9.870;2023-07-13T12:57:25;8.43;;;1.70;;
65463;SDS011;52063;45.110;9.870;2023-07-13T12:59:52;5.78;;;2.03;;
65463;SDS011;52063;45.110;9.870;2023-07-13T13:02:29;8.60;;;1.80;;
65463;SDS011;52063;45.110;9.870;2023-07-13T13:04:56;6.85;;;2.20;;
65463;SDS011;52063;45.110;9.870;2023-07-13T13:07:23;8.63;;;2.53;;
65463;SDS011;52063;45.110;9.870;2023-07-13T13:09:49;7.90;;;2.30;;
65463;SDS011;52063;45.110;9.870;2023-07-13T13:12:14;5.77;;;2.40;;
65463;SDS011;52063;45.110;9.870;2023-07-13T13:14:40;4.32;;;2.30;;
65463;SDS011;52063;45.110;9.870;2023-07-13T13:17:14;7.97;;;2.60;;
65463;SDS011;52063;45.110;9.870;2023-07-13T13:19:44;6.30;;;2.70;;
65463;SDS011;52063;45.110;9.870;2023-07-13T13:22:10;8.68;;;2.53;;
65463;SDS011;52063;45.110;9.870;2023-07-13T13:24:36;6.20;;;2.17;;
65463;SDS011;52063;45.110;9.870;2023-07-13T13:27:01;7.67;;;2.63;;
65463;SDS011;52063;45.110;9.870;2023-07-13T13:29:27;4.80;;;2.20;;
65463;SDS011;52063;45.110;9.870;2023-07-13T13:31:53;7.93;;;2.60;;
65463;SDS011;52063;45.110;9.870;2023-07-13T13:34:21;6.85;;;2.70;;
65463;SDS011;52063;45.110;9.870;2023-07-13T13:36:50;7.03;;;2.30;;
65463;SDS011;52063;45.110;9.870;2023-07-13T13:39:23;6.28;;;2.80;;
65463;SDS011;52063;45.110;9.870;2023-07-13T13:41:51;7.73;;;2.60;;
65463;SDS011;52063;45.110;9.870;2023-07-13T13:44:18;6.15;;;2.30;;
65463;SDS011;52063;45.110;9.870;2023-07-13T13:46:45;6.38;;;2.70;;
65463;SDS011;52063;45.110;9.870;2023-07-13T13:49:16;7.82;;;2.65;;
65463;SDS011;52063;45.110;9.870;2023-07-13T13:51:43;12.07;;;2.45;;
65463;SDS011;52063;45.110;9.870;2023-07-13T13:54:12;10.93;;;2.30;;
65463;SDS011;52063;45.110;9.870;2023-07-13T13:56:40;6.47;;;2.20;;
65463;SDS011;52063;45.110;9.870;2023-07-13T13:59:10;5.85;;;2.78;;
65463;SDS011;52063;45.110;9.870;2023-07-13T14:01:36;5.22;;;2.42;;
65463;SDS011;52063;45.110;9.870;2023-07-13T14:04:03;4.87;;;2.60;;
65463;SDS011;52063;45.110;9.870;2023-07-13T14:06:29;7.63;;;2.83;;
65463;SDS011;52063;45.110;9.870;2023-07-13T14:08:54;7.43;;;2.50;;
65463;SDS011;52063;45.110;9.870;2023-07-13T14:11:20;8.73;;;2.83;;
65463;SDS011;52063;45.110;9.870;2023-07-13T14:13:50;4.82;;;2.30;;
65463;SDS011;52063;45.110;9.870;2023-07-13T14:16:18;8.00;;;2.50;;
65463;SDS011;52063;45.110;9.870;2023-07-13T14:18:45;9.48;;;2.80;;
65463;SDS011;52063;45.110;9.870;2023-07-13T14:21:11;6.35;;;3.03;;
65463;SDS011;52063;45.110;9.870;2023-07-13T14:23:38;4.97;;;2.70;;
65463;SDS011;52063;45.110;9.870;2023-07-13T14:26:08;5.20;;;2.28;;
65463;SDS011;52063;45.110;9.870;2023-07-13T14:28:35;5.67;;;2.23;;
65463;SDS011;52063;45.110;9.870;2023-07-13T14:31:04;5.30;;;2.30;;
65463;SDS011;52063;45.110;9.870;2023-07-13T14:33:29;4.13;;;1.83;;
65463;SDS011;52063;45.110;9.870;2023-07-13T14:35:56;6.20;;;2.10;;
65463;SDS011;52063;45.110;9.870;2023-07-13T14:38:22;5.23;;;2.43;;
65463;SDS011;52063;45.110;9.870;2023-07-13T14:40:47;7.63;;;2.45;;
65463;SDS011;52063;45.110;9.870;2023-07-13T14:43:13;6.33;;;2.20;;
65463;SDS011;52063;45.110;9.870;2023-07-13T14:45:41;8.00;;;2.53;;
65463;SDS011;52063;45.110;9.870;2023-07-13T14:48:17;6.10;;;2.47;;
65463;SDS011;52063;45.110;9.870;2023-07-13T14:50:44;5.93;;;2.50;;
65463;SDS011;52063;45.110;9.870;2023-07-13T14:53:11;5.72;;;2.50;;
65463;SDS011;52063;45.110;9.870;2023-07-13T14:55:38;8.70;;;2.63;;
65463;SDS011;52063;45.110;9.870;2023-07-13T14:58:03;6.47;;;2.20;;
65463;SDS011;52063;45.110;9.870;2023-07-13T15:00:29;6.77;;;2.37;;
65463;SDS011;52063;45.110;9.870;2023-07-13T15:02:56;4.72;;;2.50;;
65463;SDS011;52063;45.110;9.870;2023-07-13T15:05:24;10.37;;;2.67;;
65463;SDS011;52063;45.110;9.870;2023-07-13T15:07:51;5.47;;;2.40;;
65463;SDS011;52063;45.110;9.870;2023-07-13T15:10:19;8.40;;;2.47;;
65463;SDS011;52063;45.110;9.870;2023-07-13T15:12:47;5.75;;;2.03;;
65463;SDS011;52063;45.110;9.870;2023-07-13T15:15:13;4.72;;;2.28;;
65463;SDS011;52063;45.110;9.870;2023-07-13T15:17:40;5.00;;;2.40;;
65463;SDS011;52063;45.110;9.870;2023-07-13T15:22:50;7.80;;;2.20;;
65463;SDS011;52063;45.110;9.870;2023-07-13T15:25:20;7.90;;;2.80;;
65463;SDS011;52063;45.110;9.870;2023-07-13T15:27:47;8.98;;;2.60;;
65463;SDS011;52063;45.110;9.870;2023-07-13T15:30:13;5.80;;;2.17;;